createdAt,value
2017-11-12T00:00:21.797Z,1005.88
2017-11-12T00:01:35.950Z,1005.92
2017-11-12T00:02:37.827Z,1005.95
2017-11-12T00:03:39.708Z,1005.92
2017-11-12T00:04:41.589Z,1005.89
2017-11-12T00:05:43.401Z,1005.95
2017-11-12T00:06:45.216Z,1005.90
2017-11-12T00:07:47.094Z,1005.92
2017-11-12T00:08:48.969Z,1005.89
2017-11-12T00:09:50.844Z,1005.83
2017-11-12T00:11:04.996Z,1005.86
2017-11-12T00:12:06.873Z,1005.92
2017-11-12T00:13:08.748Z,1005.91
2017-11-12T00:14:10.624Z,1005.96
2017-11-12T00:15:12.440Z,1006.01
2017-11-12T00:16:14.253Z,1005.99
2017-11-12T00:17:16.132Z,1006.04
2017-11-12T00:18:18.007Z,1006.07
2017-11-12T00:19:19.884Z,1006.03
2017-11-12T00:20:34.084Z,1006.04
2017-11-12T00:21:35.965Z,1006.03
2017-11-12T00:22:37.843Z,1006.09
2017-11-12T00:23:39.719Z,1006.05
2017-11-12T00:24:41.533Z,1005.99
2017-11-12T00:25:43.346Z,1006.04
2017-11-12T00:26:45.224Z,1006.06
2017-11-12T00:27:47.097Z,1006.06
2017-11-12T00:28:48.986Z,1006.03
2017-11-12T00:30:03.139Z,1006.03
2017-11-12T00:31:05.023Z,1006.06
2017-11-12T00:32:06.898Z,1005.98
2017-11-12T00:33:08.773Z,1006.06
2017-11-12T00:34:10.594Z,1006.08
2017-11-12T00:35:12.406Z,1006.00
2017-11-12T00:36:14.286Z,1006.02
2017-11-12T00:37:16.163Z,1006.03
2017-11-12T00:38:18.041Z,1006.04
2017-11-12T00:39:32.194Z,1006.09
2017-11-12T00:40:34.073Z,1006.10
2017-11-12T00:41:35.955Z,1006.06
2017-11-12T00:42:37.831Z,1006.07
2017-11-12T00:43:39.643Z,1006.12
2017-11-12T00:44:41.457Z,1006.08
2017-11-12T00:45:43.337Z,1006.08
2017-11-12T00:46:45.213Z,1006.12
2017-11-12T00:47:47.092Z,1006.10
2017-11-12T00:49:01.242Z,1006.09
2017-11-12T00:50:03.122Z,1006.12
2017-11-12T00:51:05.002Z,1006.09
2017-11-12T00:52:06.877Z,1006.12
2017-11-12T00:53:08.697Z,1006.15
2017-11-12T00:54:10.510Z,1006.08
2017-11-12T00:55:12.389Z,1006.13
2017-11-12T00:56:14.265Z,1006.05
2017-11-12T00:57:16.146Z,1006.11
2017-11-12T00:58:30.301Z,1006.15
2017-11-12T00:59:32.176Z,1006.13
2017-11-12T01:00:34.055Z,1006.16
2017-11-12T01:01:35.931Z,1006.17
2017-11-12T01:02:37.765Z,1006.19
2017-11-12T01:03:39.562Z,1006.13
2017-11-12T01:04:41.443Z,1006.14
2017-11-12T01:05:43.320Z,1006.12
2017-11-12T01:06:45.200Z,1006.12
2017-11-12T01:07:59.351Z,1006.16
2017-11-12T01:09:01.229Z,1006.20
2017-11-12T01:10:03.111Z,1006.18
2017-11-12T01:11:04.980Z,1006.19
2017-11-12T01:12:06.796Z,1006.17
2017-11-12T01:13:08.606Z,1006.19
2017-11-12T01:14:10.483Z,1006.22
2017-11-12T01:15:12.356Z,1006.18
2017-11-12T01:16:14.233Z,1006.17
2017-11-12T01:17:28.433Z,1006.17
2017-11-12T01:18:30.311Z,1006.18
2017-11-12T01:19:32.188Z,1006.23
2017-11-12T01:20:34.063Z,1006.18
2017-11-12T01:21:35.878Z,1006.26
2017-11-12T01:22:37.693Z,1006.14
2017-11-12T01:23:39.571Z,1006.17
2017-11-12T01:24:41.444Z,1006.14
2017-11-12T01:25:43.320Z,1006.18
2017-11-12T01:26:57.469Z,1006.20
2017-11-12T01:27:59.349Z,1006.17
2017-11-12T01:29:01.223Z,1006.16
2017-11-12T01:30:03.109Z,1006.15
2017-11-12T01:31:04.915Z,1006.16
2017-11-12T01:32:06.729Z,1006.19
2017-11-12T01:33:08.606Z,1006.19
2017-11-12T01:34:10.484Z,1006.18
2017-11-12T01:35:12.355Z,1006.15
2017-11-12T01:36:26.505Z,1006.15
2017-11-12T01:37:28.385Z,1006.13
2017-11-12T01:38:30.270Z,1006.12
2017-11-12T01:39:32.137Z,1006.22
2017-11-12T01:40:33.952Z,1006.19
2017-11-12T01:41:35.768Z,1006.22
2017-11-12T01:42:37.645Z,1006.22
2017-11-12T01:43:39.519Z,1006.23
2017-11-12T01:44:41.394Z,1006.19
2017-11-12T01:45:55.547Z,1006.27
2017-11-12T01:46:57.424Z,1006.32
2017-11-12T01:47:59.303Z,1006.32
2017-11-12T01:49:01.179Z,1006.30
2017-11-12T01:50:02.991Z,1006.34
2017-11-12T01:51:04.803Z,1006.33
2017-11-12T01:52:06.682Z,1006.31
2017-11-12T01:53:08.555Z,1006.35
2017-11-12T01:54:10.429Z,1006.33
2017-11-12T01:55:24.580Z,1006.32
2017-11-12T01:56:26.457Z,1006.33
2017-11-12T01:57:28.334Z,1006.29
2017-11-12T01:58:30.210Z,1006.37
2017-11-12T01:59:32.024Z,1006.36
2017-11-12T02:00:33.839Z,1006.34
2017-11-12T02:01:35.717Z,1006.30
2017-11-12T02:02:37.594Z,1006.31
2017-11-12T02:03:39.467Z,1006.36
2017-11-12T02:04:53.619Z,1006.33
2017-11-12T02:05:55.498Z,1006.31
2017-11-12T02:06:57.377Z,1006.36
2017-11-12T02:07:59.251Z,1006.35
2017-11-12T02:09:01.067Z,1006.36
2017-11-12T02:10:02.880Z,1006.37
2017-11-12T02:11:04.757Z,1006.34
2017-11-12T02:12:06.632Z,1006.35
2017-11-12T02:13:08.511Z,1006.35
2017-11-12T02:14:22.658Z,1006.40
2017-11-12T02:15:24.537Z,1006.39
2017-11-12T02:16:26.418Z,1006.35
2017-11-12T02:17:28.291Z,1006.40
2017-11-12T02:18:30.108Z,1006.39
2017-11-12T02:19:31.922Z,1006.38
2017-11-12T02:20:33.805Z,1006.41
2017-11-12T02:21:35.679Z,1006.36
2017-11-12T02:22:37.554Z,1006.37
2017-11-12T02:23:51.708Z,1006.44
2017-11-12T02:24:53.586Z,1006.37
2017-11-12T02:25:55.464Z,1006.41
2017-11-12T02:26:57.344Z,1006.46
2017-11-12T02:27:59.156Z,1006.45
2017-11-12T02:29:00.971Z,1006.43
2017-11-12T02:30:02.854Z,1006.44
2017-11-12T02:31:04.725Z,1006.44
2017-11-12T02:32:06.601Z,1006.43
2017-11-12T02:33:20.756Z,1006.42
2017-11-12T02:34:22.627Z,1006.44
2017-11-12T02:35:24.503Z,1006.43
2017-11-12T02:36:26.377Z,1006.44
2017-11-12T02:37:28.192Z,1006.44
2017-11-12T02:38:30.006Z,1006.46
2017-11-12T02:39:31.878Z,1006.49
2017-11-12T02:40:33.753Z,1006.51
2017-11-12T02:41:35.627Z,1006.49
2017-11-12T02:42:49.775Z,1006.52
2017-11-12T02:43:51.653Z,1006.56
2017-11-12T02:44:53.532Z,1006.54
2017-11-12T02:45:55.403Z,1006.55
2017-11-12T02:46:57.218Z,1006.55
2017-11-12T02:47:59.030Z,1006.59
2017-11-12T02:49:00.901Z,1006.54
2017-11-12T02:50:02.777Z,1006.57
2017-11-12T02:51:04.657Z,1006.56
2017-11-12T02:52:18.845Z,1006.57
2017-11-12T02:53:20.721Z,1006.59
2017-11-12T02:54:22.599Z,1006.60
2017-11-12T02:55:24.469Z,1006.57
2017-11-12T02:56:26.283Z,1006.57
2017-11-12T02:57:28.095Z,1006.58
2017-11-12T02:58:29.972Z,1006.59
2017-11-12T02:59:31.849Z,1006.61
2017-11-12T03:00:33.725Z,1006.60
2017-11-12T03:01:47.871Z,1006.61
2017-11-12T03:02:49.764Z,1006.59
2017-11-12T03:03:51.628Z,1006.54
2017-11-12T03:04:53.502Z,1006.55
2017-11-12T03:05:55.315Z,1006.61
2017-11-12T03:06:57.127Z,1006.59
2017-11-12T03:07:59.002Z,1006.62
2017-11-12T03:09:00.877Z,1006.57
2017-11-12T03:10:02.752Z,1006.59
2017-11-12T03:11:16.900Z,1006.64
2017-11-12T03:12:18.776Z,1006.60
2017-11-12T03:13:20.652Z,1006.60
2017-11-12T03:14:22.524Z,1006.61
2017-11-12T03:15:24.341Z,1006.64
2017-11-12T03:16:26.149Z,1006.61
2017-11-12T03:17:28.021Z,1006.64
2017-11-12T03:18:29.899Z,1006.64
2017-11-12T03:19:31.772Z,1006.71
2017-11-12T03:20:45.918Z,1006.71
2017-11-12T03:21:47.796Z,1006.73
2017-11-12T03:22:49.675Z,1006.73
2017-11-12T03:23:51.546Z,1006.77
2017-11-12T03:24:53.356Z,1006.78
2017-11-12T03:25:55.170Z,1006.76
2017-11-12T03:26:57.043Z,1006.80
2017-11-12T03:27:58.919Z,1006.75
2017-11-12T03:29:00.796Z,1006.78
2017-11-12T03:30:14.975Z,1006.78
2017-11-12T03:31:16.789Z,1006.80
2017-11-12T03:32:18.601Z,1006.75
2017-11-12T03:33:20.435Z,1006.76
2017-11-12T03:34:22.307Z,1006.78
2017-11-12T03:35:24.188Z,1006.81
2017-11-12T03:36:26.008Z,1006.81
2017-11-12T03:37:27.822Z,1006.82
2017-11-12T03:38:29.635Z,1006.85
2017-11-12T03:39:43.891Z,1006.89
2017-11-12T03:40:45.772Z,1006.86
2017-11-12T03:41:47.646Z,1006.87
2017-11-12T03:42:49.516Z,1006.90
2017-11-12T03:43:51.330Z,1006.92
2017-11-12T03:44:53.141Z,1006.90
2017-11-12T03:45:54.954Z,1006.88
2017-11-12T03:46:56.766Z,1006.90
2017-11-12T03:47:58.578Z,1006.90
2017-11-12T03:49:12.722Z,1006.90
2017-11-12T03:50:14.606Z,1006.93
2017-11-12T03:51:16.483Z,1006.92
2017-11-12T03:52:18.356Z,1006.96
2017-11-12T03:53:20.168Z,1006.95
2017-11-12T03:54:21.982Z,1006.94
2017-11-12T03:55:23.856Z,1006.97
2017-11-12T03:56:25.732Z,1006.96
2017-11-12T03:57:27.606Z,1006.95
2017-11-12T03:58:41.755Z,1007.01
2017-11-12T03:59:43.631Z,1007.02
2017-11-12T04:00:45.509Z,1007.01
2017-11-12T04:01:47.383Z,1007.02
2017-11-12T04:02:49.195Z,1007.05
2017-11-12T04:03:51.008Z,1007.02
2017-11-12T04:04:52.882Z,1007.05
2017-11-12T04:05:54.755Z,1007.08
2017-11-12T04:06:56.630Z,1007.12
2017-11-12T04:08:10.777Z,1007.09
2017-11-12T04:09:12.656Z,1007.09
2017-11-12T04:10:14.533Z,1007.06
2017-11-12T04:11:16.405Z,1007.03
2017-11-12T04:12:18.218Z,1007.05
2017-11-12T04:13:20.031Z,1007.05
2017-11-12T04:14:21.905Z,1007.02
2017-11-12T04:15:23.780Z,1007.04
2017-11-12T04:16:25.655Z,1007.05
2017-11-12T04:17:39.799Z,1007.04
2017-11-12T04:18:41.678Z,1007.06
2017-11-12T04:19:43.555Z,1007.08
2017-11-12T04:20:45.429Z,1007.05
2017-11-12T04:21:47.241Z,1007.02
2017-11-12T04:22:49.052Z,1007.03
2017-11-12T04:23:50.928Z,1007.02
2017-11-12T04:24:52.813Z,1007.00
2017-11-12T04:25:54.681Z,1006.99
2017-11-12T04:27:08.826Z,1006.99
2017-11-12T04:28:10.705Z,1006.95
2017-11-12T04:29:12.585Z,1006.98
2017-11-12T04:30:14.461Z,1006.99
2017-11-12T04:31:16.274Z,1007.00
2017-11-12T04:32:18.085Z,1007.00
2017-11-12T04:33:19.961Z,1006.95
2017-11-12T04:34:21.837Z,1006.95
2017-11-12T04:35:23.713Z,1006.97
2017-11-12T04:36:37.909Z,1006.96
2017-11-12T04:37:39.785Z,1006.97
2017-11-12T04:38:41.659Z,1006.98
2017-11-12T04:39:43.530Z,1006.94
2017-11-12T04:40:45.343Z,1006.94
2017-11-12T04:41:47.160Z,1006.92
2017-11-12T04:42:49.030Z,1006.95
2017-11-12T04:43:50.904Z,1006.94
2017-11-12T04:44:52.778Z,1006.92
2017-11-12T04:46:06.926Z,1006.94
2017-11-12T04:47:08.802Z,1006.95
2017-11-12T04:48:10.684Z,1006.98
2017-11-12T04:49:12.560Z,1006.95
2017-11-12T04:50:14.373Z,1006.98
2017-11-12T04:51:16.186Z,1006.99
2017-11-12T04:52:18.064Z,1006.95
2017-11-12T04:53:19.938Z,1006.94
2017-11-12T04:54:21.814Z,1006.94
2017-11-12T04:55:36.012Z,1007.04
2017-11-12T04:56:37.886Z,1007.02
2017-11-12T04:57:39.763Z,1007.00
2017-11-12T04:58:41.636Z,1007.04
2017-11-12T04:59:43.447Z,1007.09
2017-11-12T05:00:45.260Z,1007.03
2017-11-12T05:01:47.138Z,1007.03
2017-11-12T05:02:49.012Z,1007.03
2017-11-12T05:03:50.886Z,1007.01
2017-11-12T05:05:05.086Z,1007.01
2017-11-12T05:06:06.958Z,1006.96
2017-11-12T05:07:08.834Z,1007.00
2017-11-12T05:08:10.709Z,1007.01
2017-11-12T05:09:12.523Z,1006.96
2017-11-12T05:10:14.335Z,1006.99
2017-11-12T05:11:16.214Z,1006.95
2017-11-12T05:12:18.088Z,1006.95
2017-11-12T05:13:19.965Z,1006.95
2017-11-12T05:14:34.112Z,1006.92
2017-11-12T05:15:35.990Z,1006.96
2017-11-12T05:16:37.865Z,1006.92
2017-11-12T05:17:39.746Z,1006.92
2017-11-12T05:18:41.553Z,1006.94
2017-11-12T05:19:43.366Z,1006.92
2017-11-12T05:20:45.243Z,1006.93
2017-11-12T05:21:47.121Z,1006.96
2017-11-12T05:22:48.997Z,1006.95
2017-11-12T05:24:03.142Z,1006.94
2017-11-12T05:25:05.025Z,1006.92
2017-11-12T05:26:06.903Z,1006.92
2017-11-12T05:27:08.779Z,1006.93
2017-11-12T05:28:10.592Z,1006.93
2017-11-12T05:29:12.404Z,1006.94
2017-11-12T05:30:14.284Z,1006.93
2017-11-12T05:31:16.165Z,1006.94
2017-11-12T05:32:18.033Z,1006.93
2017-11-12T05:33:32.184Z,1006.93
2017-11-12T05:34:34.063Z,1006.94
2017-11-12T05:35:35.940Z,1006.94
2017-11-12T05:36:37.814Z,1006.92
2017-11-12T05:37:39.625Z,1006.91
2017-11-12T05:38:41.440Z,1006.87
2017-11-12T05:39:43.316Z,1006.90
2017-11-12T05:40:45.190Z,1006.90
2017-11-12T05:41:47.066Z,1006.89
2017-11-12T05:43:01.215Z,1006.91
2017-11-12T05:44:03.091Z,1006.92
2017-11-12T05:45:04.973Z,1006.91
2017-11-12T05:46:06.846Z,1006.92
2017-11-12T05:47:08.658Z,1006.89
2017-11-12T05:48:10.470Z,1006.91
2017-11-12T05:49:12.344Z,1006.90
2017-11-12T05:50:14.221Z,1006.91
2017-11-12T05:51:16.096Z,1006.92
2017-11-12T05:52:30.244Z,1006.95
2017-11-12T05:53:32.121Z,1006.90
2017-11-12T05:54:33.999Z,1006.89
2017-11-12T05:55:35.877Z,1006.85
2017-11-12T05:56:37.688Z,1006.80
2017-11-12T05:57:39.501Z,1006.80
2017-11-12T05:58:41.382Z,1006.74
2017-11-12T05:59:43.256Z,1006.78
2017-11-12T06:00:45.131Z,1006.79
2017-11-12T06:01:59.280Z,1006.82
2017-11-12T06:03:01.158Z,1006.78
2017-11-12T06:04:03.048Z,1006.84
2017-11-12T06:05:04.923Z,1006.81
2017-11-12T06:06:06.733Z,1006.80
2017-11-12T06:07:08.549Z,1006.76
2017-11-12T06:08:10.433Z,1006.77
2017-11-12T06:09:12.316Z,1006.80
2017-11-12T06:10:14.200Z,1006.81
2017-11-12T06:11:28.337Z,1006.80
2017-11-12T06:12:30.218Z,1006.83
2017-11-12T06:13:32.097Z,1006.81
2017-11-12T06:14:33.976Z,1006.78
2017-11-12T06:15:35.794Z,1006.76
2017-11-12T06:16:37.625Z,1006.79
2017-11-12T06:17:39.491Z,1006.75
2017-11-12T06:18:41.378Z,1006.78
2017-11-12T06:19:43.246Z,1006.76
2017-11-12T06:20:57.398Z,1006.80
2017-11-12T06:21:59.281Z,1006.76
2017-11-12T06:23:01.162Z,1006.78
2017-11-12T06:24:03.041Z,1006.75
2017-11-12T06:25:04.866Z,1006.73
2017-11-12T06:26:06.678Z,1006.73
2017-11-12T06:27:08.555Z,1006.72
2017-11-12T06:28:10.433Z,1006.72
2017-11-12T06:29:12.310Z,1006.74
2017-11-12T06:30:26.459Z,1006.67
2017-11-12T06:31:28.346Z,1006.65
2017-11-12T06:32:30.225Z,1006.60
2017-11-12T06:33:32.113Z,1006.64
2017-11-12T06:34:33.918Z,1006.66
2017-11-12T06:35:35.737Z,1006.63
2017-11-12T06:36:37.613Z,1006.60
2017-11-12T06:37:39.490Z,1006.62
2017-11-12T06:38:41.373Z,1006.63
2017-11-12T06:39:55.524Z,1006.65
2017-11-12T06:40:57.405Z,1006.66
2017-11-12T06:41:59.286Z,1006.65
2017-11-12T06:43:01.163Z,1006.66
2017-11-12T06:44:02.982Z,1006.68
2017-11-12T06:45:04.804Z,1006.70
2017-11-12T06:46:06.680Z,1006.68
2017-11-12T06:47:08.557Z,1006.68
2017-11-12T06:48:10.438Z,1006.67
2017-11-12T06:49:24.592Z,1006.74
2017-11-12T06:50:26.475Z,1006.71
2017-11-12T06:51:28.356Z,1006.73
2017-11-12T06:52:30.232Z,1006.72
2017-11-12T06:53:32.057Z,1006.70
2017-11-12T06:54:33.868Z,1006.72
2017-11-12T06:55:35.748Z,1006.71
2017-11-12T06:56:37.628Z,1006.71
2017-11-12T06:57:39.510Z,1006.72
2017-11-12T06:58:53.666Z,1006.74
2017-11-12T06:59:55.550Z,1006.71
2017-11-12T07:00:57.430Z,1006.69
2017-11-12T07:01:59.316Z,1006.67
2017-11-12T07:03:01.128Z,1006.62
2017-11-12T07:04:02.948Z,1006.61
2017-11-12T07:05:04.861Z,1006.60
2017-11-12T07:06:06.717Z,1006.60
2017-11-12T07:07:08.598Z,1006.55
2017-11-12T07:08:22.755Z,1006.57
2017-11-12T07:09:24.640Z,1006.56
2017-11-12T07:10:26.518Z,1006.59
2017-11-12T07:11:28.400Z,1006.57
2017-11-12T07:12:30.220Z,1006.62
2017-11-12T07:13:32.047Z,1006.64
2017-11-12T07:14:33.927Z,1006.61
2017-11-12T07:15:35.810Z,1006.64
2017-11-12T07:16:37.693Z,1006.66
2017-11-12T07:17:51.848Z,1006.64
2017-11-12T07:18:53.732Z,1006.69
2017-11-12T07:19:55.613Z,1006.73
2017-11-12T07:20:57.507Z,1006.72
2017-11-12T07:21:59.326Z,1006.68
2017-11-12T07:23:01.148Z,1006.68
2017-11-12T07:24:03.030Z,1006.72
2017-11-12T07:25:04.912Z,1006.72
2017-11-12T07:26:06.800Z,1006.75
2017-11-12T07:27:20.984Z,1006.77
2017-11-12T07:28:22.808Z,1006.72
2017-11-12T07:29:24.631Z,1006.69
2017-11-12T07:30:26.472Z,1006.71
2017-11-12T07:31:28.353Z,1006.72
2017-11-12T07:32:30.237Z,1006.73
2017-11-12T07:33:32.077Z,1006.69
2017-11-12T07:34:33.896Z,1006.70
2017-11-12T07:35:36.141Z,1006.73
2017-11-12T07:36:50.324Z,1006.70
2017-11-12T07:37:52.209Z,1006.66
2017-11-12T07:38:54.090Z,1006.68
2017-11-12T07:39:55.977Z,1006.68
2017-11-12T07:40:57.797Z,1006.63
2017-11-12T07:41:59.660Z,1006.68
2017-11-12T07:43:01.630Z,1006.64
2017-11-12T07:44:03.507Z,1006.64
2017-11-12T07:45:05.923Z,1006.64
2017-11-12T07:46:20.046Z,1006.66
2017-11-12T07:47:21.928Z,1006.65
2017-11-12T07:48:23.812Z,1006.61
2017-11-12T07:49:25.689Z,1006.64
2017-11-12T07:50:27.509Z,1006.63
2017-11-12T07:51:29.345Z,1006.66
2017-11-12T07:52:31.229Z,1006.66
2017-11-12T07:53:33.128Z,1006.68
2017-11-12T07:54:34.995Z,1006.72
2017-11-12T07:55:49.177Z,1006.69
2017-11-12T07:56:51.061Z,1006.66
2017-11-12T07:57:52.943Z,1006.70
2017-11-12T07:58:54.834Z,1006.65
2017-11-12T07:59:56.656Z,1006.66
2017-11-12T08:00:58.478Z,1006.60
2017-11-12T08:02:00.363Z,1006.59
2017-11-12T08:03:02.200Z,1006.57
2017-11-12T08:04:04.022Z,1006.56
2017-11-12T08:05:18.179Z,1006.53
2017-11-12T08:06:20.069Z,1006.50
2017-11-12T08:07:21.946Z,1006.50
2017-11-12T08:08:23.831Z,1006.47
2017-11-12T08:09:25.652Z,1006.46
2017-11-12T08:10:27.487Z,1006.45
2017-11-12T08:11:29.368Z,1006.44
2017-11-12T08:12:31.252Z,1006.43
2017-11-12T08:13:33.138Z,1006.42
2017-11-12T08:14:47.294Z,1006.39
2017-11-12T08:15:49.182Z,1006.41
2017-11-12T08:16:51.061Z,1006.38
2017-11-12T08:17:52.947Z,1006.47
2017-11-12T08:18:54.765Z,1006.45
2017-11-12T08:19:56.586Z,1006.47
2017-11-12T08:20:58.469Z,1006.44
2017-11-12T08:22:00.351Z,1006.47
2017-11-12T08:23:02.232Z,1006.46
2017-11-12T08:24:16.391Z,1006.47
2017-11-12T08:25:18.277Z,1006.37
2017-11-12T08:26:20.158Z,1006.43
2017-11-12T08:27:22.045Z,1006.40
2017-11-12T08:28:23.869Z,1006.46
2017-11-12T08:29:25.690Z,1006.43
2017-11-12T08:30:27.574Z,1006.43
2017-11-12T08:31:29.456Z,1006.41
2017-11-12T08:32:31.334Z,1006.39
2017-11-12T08:33:45.493Z,1006.38
2017-11-12T08:34:47.377Z,1006.36
2017-11-12T08:35:49.260Z,1006.28
2017-11-12T08:36:51.146Z,1006.27
2017-11-12T08:37:52.968Z,1006.27
2017-11-12T08:38:54.793Z,1006.27
2017-11-12T08:39:56.675Z,1006.31
2017-11-12T08:40:58.557Z,1006.27
2017-11-12T08:42:00.439Z,1006.29
2017-11-12T08:43:14.607Z,1006.29
2017-11-12T08:44:17.039Z,1006.23
2017-11-12T08:45:19.714Z,1006.18
2017-11-12T08:46:22.354Z,1006.11
2017-11-12T08:47:24.884Z,1006.08
2017-11-12T08:48:27.763Z,1006.09
2017-11-12T08:49:30.605Z,1006.08
2017-11-12T08:50:33.146Z,1006.13
2017-11-12T08:51:35.905Z,1006.15
2017-11-12T08:52:50.879Z,1006.13
2017-11-12T08:53:53.599Z,1006.13
2017-11-12T08:54:55.961Z,1006.13
2017-11-12T08:55:59.169Z,1006.16
2017-11-12T08:57:01.137Z,1006.15
2017-11-12T08:58:02.961Z,1006.09
2017-11-12T08:59:04.844Z,1006.12
2017-11-12T09:00:07.073Z,1006.15
2017-11-12T09:01:09.033Z,1006.17
2017-11-12T09:02:23.191Z,1006.08
2017-11-12T09:03:25.076Z,1006.07
2017-11-12T09:04:26.958Z,1006.10
2017-11-12T09:05:28.838Z,1006.07
2017-11-12T09:06:30.659Z,1006.09
2017-11-12T09:07:32.480Z,1006.07
2017-11-12T09:08:34.371Z,1006.01
2017-11-12T09:09:36.263Z,1005.99
2017-11-12T09:10:38.146Z,1006.01
2017-11-12T09:11:52.305Z,1006.05
2017-11-12T09:12:54.194Z,1006.07
2017-11-12T09:13:56.080Z,1006.02
2017-11-12T09:14:57.963Z,1006.01
2017-11-12T09:15:59.800Z,1005.97
2017-11-12T09:17:01.616Z,1005.99
2017-11-12T09:18:04.030Z,1005.95
2017-11-12T09:19:06.904Z,1005.94
2017-11-12T09:20:09.695Z,1005.94
2017-11-12T09:21:24.378Z,1005.96
2017-11-12T09:22:26.817Z,1005.93
2017-11-12T09:23:28.802Z,1005.90
2017-11-12T09:24:30.691Z,1005.96
2017-11-12T09:25:32.509Z,1005.89
2017-11-12T09:26:34.329Z,1005.90
2017-11-12T09:27:36.215Z,1005.88
2017-11-12T09:28:38.102Z,1005.88
2017-11-12T09:29:39.993Z,1005.86
2017-11-12T09:30:54.148Z,1005.84
2017-11-12T09:31:56.115Z,1005.79
2017-11-12T09:32:57.967Z,1005.73
2017-11-12T09:33:59.857Z,1005.72
2017-11-12T09:35:01.679Z,1005.68
2017-11-12T09:36:03.500Z,1005.71
2017-11-12T09:37:05.409Z,1005.74
2017-11-12T09:38:07.295Z,1005.75
2017-11-12T09:39:09.178Z,1005.71
2017-11-12T09:40:23.344Z,1005.74
2017-11-12T09:41:25.238Z,1005.71
2017-11-12T09:42:27.121Z,1005.69
2017-11-12T09:43:29.050Z,1005.66
2017-11-12T09:44:30.872Z,1005.65
2017-11-12T09:45:32.695Z,1005.62
2017-11-12T09:46:34.597Z,1005.61
2017-11-12T09:47:36.499Z,1005.61
2017-11-12T09:48:38.695Z,1005.61
2017-11-12T09:49:53.180Z,1005.61
2017-11-12T09:50:55.389Z,1005.53
2017-11-12T09:51:57.243Z,1005.55
2017-11-12T09:52:59.122Z,1005.54
2017-11-12T09:54:00.945Z,1005.55
2017-11-12T09:55:02.803Z,1005.50
2017-11-12T09:56:04.688Z,1005.45
2017-11-12T09:57:06.595Z,1005.44
2017-11-12T09:58:08.827Z,1005.39
2017-11-12T09:59:23.033Z,1005.37
2017-11-12T10:00:24.913Z,1005.34
2017-11-12T10:01:26.815Z,1005.31
2017-11-12T10:02:29.067Z,1005.35
2017-11-12T10:03:31.196Z,1005.36
2017-11-12T10:04:33.031Z,1005.31
2017-11-12T10:05:34.913Z,1005.31
2017-11-12T10:06:36.801Z,1005.28
2017-11-12T10:07:38.693Z,1005.19
2017-11-12T10:08:52.843Z,1005.11
2017-11-12T10:09:54.731Z,1005.11
2017-11-12T10:10:56.617Z,1005.14
2017-11-12T10:11:58.878Z,1005.18
2017-11-12T10:13:00.719Z,1005.21
2017-11-12T10:14:02.541Z,1005.19
2017-11-12T10:15:04.444Z,1005.18
2017-11-12T10:16:06.330Z,1005.18
2017-11-12T10:17:08.209Z,1005.17
2017-11-12T10:18:22.373Z,1005.12
2017-11-12T10:19:24.682Z,1005.11
2017-11-12T10:20:26.570Z,1005.05
2017-11-12T10:21:28.461Z,1005.02
2017-11-12T10:22:30.298Z,1004.98
2017-11-12T10:23:32.142Z,1005.03
2017-11-12T10:24:34.025Z,1005.07
2017-11-12T10:25:35.915Z,1005.07
2017-11-12T10:26:37.805Z,1005.04
2017-11-12T10:27:51.965Z,1004.98
2017-11-12T10:28:54.247Z,1005.00
2017-11-12T10:29:56.113Z,1005.03
2017-11-12T10:30:57.994Z,1005.03
2017-11-12T10:32:00.138Z,1005.11
2017-11-12T10:33:01.962Z,1005.10
2017-11-12T10:34:03.881Z,1005.11
2017-11-12T10:35:05.752Z,1005.07
2017-11-12T10:36:08.173Z,1005.02
2017-11-12T10:37:22.319Z,1005.03
2017-11-12T10:38:24.204Z,1004.97
2017-11-12T10:39:26.091Z,1005.01
2017-11-12T10:40:27.985Z,1005.02
2017-11-12T10:41:29.809Z,1004.97
2017-11-12T10:42:31.637Z,1004.95
2017-11-12T10:43:33.529Z,1004.95
2017-11-12T10:44:35.426Z,1004.89
2017-11-12T10:45:37.297Z,1004.81
2017-11-12T10:46:51.453Z,1004.76
2017-11-12T10:47:53.360Z,1004.72
2017-11-12T10:48:55.256Z,1004.73
2017-11-12T10:49:57.140Z,1004.71
2017-11-12T10:50:58.967Z,1004.64
2017-11-12T10:52:00.791Z,1004.60
2017-11-12T10:53:02.676Z,1004.59
2017-11-12T10:54:04.565Z,1004.51
2017-11-12T10:55:06.504Z,1004.54
2017-11-12T10:56:20.655Z,1004.53
2017-11-12T10:57:22.540Z,1004.52
2017-11-12T10:58:24.422Z,1004.46
2017-11-12T10:59:26.330Z,1004.41
2017-11-12T11:00:28.150Z,1004.42
2017-11-12T11:01:29.981Z,1004.38
2017-11-12T11:02:31.867Z,1004.41
2017-11-12T11:03:33.752Z,1004.41
2017-11-12T11:04:35.640Z,1004.37
2017-11-12T11:05:49.798Z,1004.43
2017-11-12T11:06:51.687Z,1004.28
2017-11-12T11:07:53.572Z,1004.38
2017-11-12T11:08:55.884Z,1004.42
2017-11-12T11:09:58.144Z,1004.38
2017-11-12T11:10:59.930Z,1004.32
2017-11-12T11:12:01.819Z,1004.25
2017-11-12T11:13:03.702Z,1004.21
2017-11-12T11:14:05.586Z,1004.21
2017-11-12T11:15:19.746Z,1004.29
2017-11-12T11:16:21.634Z,1004.23
2017-11-12T11:17:23.516Z,1004.24
2017-11-12T11:18:25.403Z,1004.22
2017-11-12T11:19:27.230Z,1004.25
2017-11-12T11:20:29.380Z,1004.25
2017-11-12T11:21:31.284Z,1004.22
2017-11-12T11:22:33.180Z,1004.22
2017-11-12T11:23:35.056Z,1004.21
2017-11-12T11:24:49.216Z,1004.28
2017-11-12T11:25:51.110Z,1004.23
2017-11-12T11:26:52.986Z,1004.18
2017-11-12T11:27:54.871Z,1004.16
2017-11-12T11:28:56.712Z,1004.14
2017-11-12T11:29:58.548Z,1004.09
2017-11-12T11:31:00.430Z,1004.08
2017-11-12T11:32:02.313Z,1004.02
2017-11-12T11:33:04.226Z,1003.93
2017-11-12T11:34:18.388Z,1003.92
2017-11-12T11:35:20.275Z,1003.92
2017-11-12T11:36:22.159Z,1003.89
2017-11-12T11:37:24.043Z,1003.83
2017-11-12T11:38:25.871Z,1003.78
2017-11-12T11:39:27.692Z,1003.75
2017-11-12T11:40:29.577Z,1003.80
2017-11-12T11:41:31.467Z,1003.75
2017-11-12T11:42:33.347Z,1003.74
2017-11-12T11:43:47.556Z,1003.75
2017-11-12T11:44:49.452Z,1003.70
2017-11-12T11:45:51.363Z,1003.70
2017-11-12T11:46:53.265Z,1003.73
2017-11-12T11:47:55.088Z,1003.69
2017-11-12T11:48:56.910Z,1003.67
2017-11-12T11:49:59.097Z,1003.74
2017-11-12T11:51:00.947Z,1003.74
2017-11-12T11:52:02.879Z,1003.71
2017-11-12T11:53:17.000Z,1003.71
2017-11-12T11:54:18.885Z,1003.74
2017-11-12T11:55:20.770Z,1003.73
2017-11-12T11:56:22.655Z,1003.76
2017-11-12T11:57:24.475Z,1003.78
2017-11-12T11:58:26.677Z,1003.77
2017-11-12T11:59:28.594Z,1003.76
2017-11-12T12:00:30.475Z,1003.72
2017-11-12T12:01:32.356Z,1003.65
2017-11-12T12:02:46.538Z,1003.60
2017-11-12T12:03:48.442Z,1003.58
2017-11-12T12:04:50.327Z,1003.55
2017-11-12T12:05:52.208Z,1003.56
2017-11-12T12:06:54.030Z,1003.56
2017-11-12T12:07:55.851Z,1003.51
2017-11-12T12:08:57.737Z,1003.47
2017-11-12T12:09:59.620Z,1003.42
2017-11-12T12:11:01.514Z,1003.46
2017-11-12T12:12:15.683Z,1003.40
2017-11-12T12:13:17.573Z,1003.38
2017-11-12T12:14:19.466Z,1003.32
2017-11-12T12:15:21.341Z,1003.32
2017-11-12T12:16:23.169Z,1003.27
2017-11-12T12:17:24.989Z,1003.25
2017-11-12T12:18:26.875Z,1003.21
2017-11-12T12:19:28.760Z,1003.26
2017-11-12T12:20:30.649Z,1003.17
2017-11-12T12:21:44.809Z,1003.30
2017-11-12T12:22:46.696Z,1003.28
2017-11-12T12:23:48.582Z,1003.30
2017-11-12T12:24:50.471Z,1003.30
2017-11-12T12:25:52.292Z,1003.27
2017-11-12T12:26:54.121Z,1003.23
2017-11-12T12:27:55.974Z,1003.22
2017-11-12T12:28:57.795Z,1003.12
2017-11-12T12:29:59.642Z,1003.11
2017-11-12T12:31:13.800Z,1003.01
2017-11-12T12:32:15.696Z,1002.98
2017-11-12T12:33:17.581Z,1002.97
2017-11-12T12:34:19.848Z,1002.93
2017-11-12T12:35:21.688Z,1002.86
2017-11-12T12:36:23.512Z,1002.84
2017-11-12T12:37:25.406Z,1002.83
2017-11-12T12:38:27.672Z,1002.80
2017-11-12T12:39:29.633Z,1002.77
2017-11-12T12:40:43.761Z,1002.66
2017-11-12T12:41:45.671Z,1002.63
2017-11-12T12:42:47.910Z,1002.59
2017-11-12T12:43:49.834Z,1002.59
2017-11-12T12:44:51.698Z,1002.59